Time;durP1;ratioP1;P1;durP2;ratioP2;P2;SDS_P1;SDS_P2;PMS_P1;PMS_P2;Temp;Humidity;BMP_temperature;BMP_pressure;BME280_temperature;BME280_humidity;BME280_pressure;Samples;Min_cycle;Max_cycle;Signal;HPM_P1;HPM_P2
2023/10/02 00:02:43;;;;;;;12.20;5.50;;;;;;;14.47;78.65;101011.93;130238;1275;115119;-70
2023/10/02 00:05:51;;;;;;;11.30;5.00;;;;;;;14.48;78.78;101008.23;130235;1253;115145;-70
2023/10/02 00:08:53;;;;;;;10.10;4.90;;;;;;;14.49;78.63;101005.67;130250;1259;115006;-69
2023/10/02 00:12:01;;;;;;;8.60;4.80;;;;;;;14.51;78.60;100998.21;130369;1254;114923;-69
2023/10/02 00:15:14;;;;;;;8.70;4.80;;;;;;;14.54;78.80;100996.63;130240;1260;128056;-68
2023/10/02 00:18:18;;;;;;;9.40;5.40;;;;;;;14.56;79.01;100997.93;130244;1254;115345;-69
2023/10/02 00:21:22;;;;;;;8.60;5.20;;;;;;;14.58;78.59;100997.65;130126;1262;115263;-69
2023/10/02 00:24:26;;;;;;;11.70;4.80;;;;;;;14.60;78.91;100994.98;130489;1272;115112;-65
2023/10/02 00:27:31;;;;;;;9.00;4.80;;;;;;;14.64;79.00;100998.44;130409;1256;114721;-68
2023/10/02 00:30:36;;;;;;;14.30;5.50;;;;;;;14.66;79.17;100995.41;130265;1259;128909;-69
2023/10/02 00:33:38;;;;;;;8.70;4.90;;;;;;;14.68;79.23;100998.40;130477;1256;115241;-70
2023/10/02 00:36:40;;;;;;;9.10;5.00;;;;;;;14.70;79.14;101000.98;130536;1266;115002;-70
2023/10/02 00:39:51;;;;;;;8.50;5.00;;;;;;;14.72;79.19;100998.73;130483;1256;115221;-69
2023/10/02 00:43:00;;;;;;;9.00;5.10;;;;;;;14.73;79.12;101000.45;130339;1275;114774;-66
2023/10/02 00:46:03;;;;;;;8.20;4.80;;;;;;;14.75;79.29;100997.29;130424;1257;114743;-69
2023/10/02 00:49:25;;;;;;;10.50;4.70;;;;;;;14.77;79.49;100995.75;130328;1257;114731;-70
2023/10/02 00:52:28;;;;;;;10.40;4.50;;;;;;;14.79;79.44;100997.44;130257;1254;115352;-69
2023/10/02 00:55:34;;;;;;;8.80;4.70;;;;;;;14.79;79.56;100998.13;130359;1257;114885;-65
2023/10/02 00:58:38;;;;;;;11.80;4.40;;;;;;;14.81;79.55;100999.27;130338;1254;114855;-67
2023/10/02 01:01:42;;;;;;;7.70;4.90;;;;;;;14.83;79.37;100997.94;130135;1254;115554;-67
2023/10/02 01:04:47;;;;;;;9.90;4.30;;;;;;;14.84;79.26;101001.08;130295;1254;126882;-67
2023/10/02 01:07:54;;;;;;;9.90;4.70;;;;;;;14.85;79.42;101005.36;130331;1257;114728;-66
2023/10/02 01:11:02;;;;;;;9.20;4.80;;;;;;;14.87;79.27;101007.96;130217;1259;114827;-67
2023/10/02 01:14:05;;;;;;;10.50;5.20;;;;;;;14.88;79.17;101006.78;130373;1256;114709;-66
2023/10/02 01:17:09;;;;;;;12.40;5.30;;;;;;;14.90;78.93;101008.30;130283;1257;115181;-70
2023/10/02 01:20:14;;;;;;;10.70;5.10;;;;;;;14.91;78.94;101004.29;130126;1262;127969;-68
2023/10/02 01:23:23;;;;;;;10.30;5.10;;;;;;;14.94;79.05;101005.96;130225;1260;115022;-65
2023/10/02 01:26:28;;;;;;;7.40;5.00;;;;;;;14.96;78.97;101005.65;130029;1253;114886;-67
2023/10/02 01:29:31;;;;;;;13.10;5.20;;;;;;;14.99;79.09;101007.29;130263;1257;114795;-66
2023/10/02 01:32:34;;;;;;;9.00;4.60;;;;;;;15.00;79.06;101007.36;130357;1254;114735;-71
2023/10/02 01:35:36;;;;;;;10.00;5.30;;;;;;;15.02;79.40;101010.85;130386;1256;114696;-67
2023/10/02 01:38:44;;;;;;;8.70;4.60;;;;;;;15.04;79.50;101008.41;130374;1254;114718;-68
2023/10/02 01:41:52;;;;;;;10.00;5.50;;;;;;;15.06;79.28;101012.45;130281;1259;115319;-66
2023/10/02 01:44:58;;;;;;;7.20;4.60;;;;;;;15.08;79.30;101011.63;130400;1253;114633;-68
2023/10/02 01:48:02;;;;;;;9.80;5.00;;;;;;;15.09;79.35;101008.72;130419;1256;115157;-66
2023/10/02 01:51:20;;;;;;;7.40;4.90;;;;;;;15.10;79.38;101009.69;130184;1259;126913;-67
2023/10/02 01:54:23;;;;;;;8.30;4.70;;;;;;;15.11;79.50;101010.55;130321;1257;115236;-66
2023/10/02 01:57:29;;;;;;;10.90;5.10;;;;;;;15.12;79.55;101012.82;130437;1253;114658;-67
2023/10/02 02:00:34;;;;;;;12.20;5.60;;;;;;;15.14;79.62;101015.80;130261;1259;114837;-67
2023/10/02 02:03:37;;;;;;;8.10;4.70;;;;;;;15.14;79.35;101009.30;130395;1254;114763;-68
2023/10/02 02:06:51;;;;;;;9.40;4.80;;;;;;;15.14;79.54;101013.75;130223;1257;115068;-67
2023/10/02 02:09:53;;;;;;;7.50;4.00;;;;;;;15.16;79.47;101015.84;130128;1256;115224;-67
2023/10/02 02:12:55;;;;;;;8.00;4.50;;;;;;;15.17;79.56;101013.11;130249;1253;114763;-66
2023/10/02 02:16:07;;;;;;;7.80;5.30;;;;;;;15.18;79.71;101016.27;130343;1257;114693;-68
2023/10/02 02:19:12;;;;;;;8.30;5.30;;;;;;;15.19;79.71;101011.70;130241;1258;114808;-67
2023/10/02 02:22:19;;;;;;;9.60;4.40;;;;;;;15.21;79.65;101005.89;130137;1257;114920;-67
2023/10/02 02:25:26;;;;;;;8.10;4.90;;;;;;;15.22;79.79;101001.52;130323;1253;128686;-66
2023/10/02 02:28:43;;;;;;;7.70;4.80;;;;;;;15.23;80.15;101000.19;130490;1253;115240;-67
2023/10/02 02:31:46;;;;;;;12.00;5.70;;;;;;;15.23;79.97;100997.42;130361;1253;114767;-67
2023/10/02 02:35:00;;;;;;;7.70;4.70;;;;;;;15.24;79.85;101000.11;130360;1253;114843;-66
2023/10/02 02:38:04;;;;;;;9.00;5.00;;;;;;;15.25;79.88;101000.44;130376;1253;114702;-68
2023/10/02 02:41:07;;;;;;;8.60;5.40;;;;;;;15.26;79.97;101000.02;130344;1253;127958;-67
2023/10/02 02:44:36;;;;;;;8.90;4.60;;;;;;;15.26;79.98;101001.44;130505;1257;115016;-66
2023/10/02 02:47:51;;;;;;;11.10;4.80;;;;;;;15.27;80.16;101000.31;130325;1257;114700;-67
2023/10/02 02:50:53;;;;;;;10.30;5.10;;;;;;;15.27;80.20;100998.09;130284;1259;115250;-66
2023/10/02 02:53:55;;;;;;;12.20;4.80;;;;;;;15.28;80.33;100994.09;130417;1256;114915;-66
2023/10/02 02:56:58;;;;;;;10.20;5.20;;;;;;;15.29;80.21;100992.44;130573;1254;114738;-67
2023/10/02 03:03:41;;;;;;;12.00;5.20;;;;;;;15.30;80.45;100994.70;130475;1266;115266;-65
2023/10/02 03:06:43;;;;;;;9.20;4.90;;;;;;;15.31;80.52;100995.54;129973;1258;114732;-65
2023/10/02 03:09:45;;;;;;;8.40;5.00;;;;;;;15.31;80.40;100994.29;130255;1256;114698;-68
2023/10/02 03:12:51;;;;;;;12.20;5.60;;;;;;;15.31;80.40;100990.65;130326;1257;114634;-66
2023/10/02 03:15:53;;;;;;;7.70;5.00;;;;;;;15.31;80.30;100992.83;130354;1257;114817;-66
2023/10/02 03:18:56;;;;;;;9.60;4.80;;;;;;;15.32;80.52;100999.08;130264;1275;114881;-67
2023/10/02 03:22:02;;;;;;;6.60;4.60;;;;;;;15.32;80.55;101001.42;130401;1256;114757;-66
2023/10/02 03:25:25;;;;;;;12.80;5.30;;;;;;;15.32;80.55;100997.30;130255;1254;114841;-66
2023/10/02 03:28:32;;;;;;;7.70;4.70;;;;;;;15.31;80.54;100993.58;130291;1256;115224;-68
2023/10/02 03:31:51;;;;;;;12.80;5.10;;;;;;;15.31;80.63;100989.95;130361;1257;115009;-67
2023/10/02 03:35:02;;;;;;;10.60;5.00;;;;;;;15.31;80.77;100986.91;130177;1254;127682;-66
2023/10/02 03:38:04;;;;;;;6.70;4.90;;;;;;;15.31;80.59;100986.54;130277;1257;115346;-67
2023/10/02 03:41:13;;;;;;;9.50;5.20;;;;;;;15.31;80.72;100985.67;130299;1256;115278;-67
2023/10/02 03:44:16;;;;;;;8.70;5.20;;;;;;;15.31;80.82;100984.02;130360;1275;114850;-67
2023/10/02 03:47:18;;;;;;;9.80;5.10;;;;;;;15.32;80.95;100983.98;130268;1254;114821;-69
2023/10/02 03:50:20;;;;;;;11.50;5.70;;;;;;;15.31;80.99;100983.66;130472;1253;114807;-66
2023/10/02 03:53:28;;;;;;;8.90;5.80;;;;;;;15.30;80.91;100983.53;130299;1275;128747;-67
2023/10/02 03:56:36;;;;;;;9.10;5.80;;;;;;;15.29;80.70;100986.14;129963;1262;114895;-66
2023/10/02 03:59:52;;;;;;;11.50;5.90;;;;;;;15.29;80.70;100988.86;130218;1256;114820;-68
2023/10/02 04:02:59;;;;;;;10.30;5.30;;;;;;;15.28;80.99;100992.27;130195;1253;114741;-66
2023/10/02 04:06:05;;;;;;;13.80;5.70;;;;;;;15.27;80.74;100991.98;130025;1257;114901;-66
2023/10/02 04:09:21;;;;;;;9.50;5.60;;;;;;;15.28;81.07;100998.60;129970;1253;127858;-66
2023/10/02 04:12:23;;;;;;;13.40;6.60;;;;;;;15.28;80.80;101002.77;130214;1253;115327;-67
2023/10/02 04:15:25;;;;;;;13.00;5.80;;;;;;;15.27;80.92;100995.29;130213;1259;114751;-67
2023/10/02 04:22:06;;;;;;;10.80;5.10;;;;;;;15.27;81.26;100990.39;129819;1259;114719;-67
2023/10/02 04:25:09;;;;;;;10.10;5.00;;;;;;;15.27;81.49;100988.73;129668;1261;115522;-67
2023/10/02 04:28:12;;;;;;;7.40;4.70;;;;;;;15.28;81.39;100986.38;129641;1263;114888;-66
2023/10/02 04:31:20;;;;;;;12.10;5.60;;;;;;;15.28;81.62;100983.64;129626;1263;114949;-69
2023/10/02 04:34:29;;;;;;;9.10;5.50;;;;;;;15.29;81.46;100984.00;129672;1279;114946;-68
2023/10/02 04:37:36;;;;;;;9.80;5.30;;;;;;;15.29;81.53;100989.18;129687;1264;114845;-67
2023/10/02 04:40:49;;;;;;;11.80;5.20;;;;;;;15.29;81.70;100985.95;129798;1282;115011;-69
2023/10/02 04:43:57;;;;;;;11.00;5.30;;;;;;;15.30;81.74;100987.55;129577;1260;128927;-68
2023/10/02 04:47:00;;;;;;;10.10;5.40;;;;;;;15.30;81.94;100986.07;129523;1265;115413;-66
2023/10/02 04:53:19;;;;;;;11.90;6.10;;;;;;;15.29;81.91;100995.64;129854;1264;114972;-66
2023/10/02 04:56:24;;;;;;;11.20;5.70;;;;;;;15.28;81.74;100992.50;129992;1263;114856;-67
2023/10/02 04:59:50;;;;;;;11.20;5.70;;;;;;;15.27;81.88;100994.35;130357;1260;127941;-66
2023/10/02 05:02:49;;;;;;;12.70;5.50;;;;;;;15.27;81.66;100997.39;130085;1275;115176;-66
2023/10/02 05:05:58;;;;;;;11.30;6.20;;;;;;;15.28;81.77;100998.45;130343;1253;114737;-66
2023/10/02 05:12:06;;;;;;;13.40;5.30;;;;;;;15.30;81.84;101001.54;130337;1256;114810;-66
2023/10/02 05:15:09;;;;;;;11.60;5.40;;;;;;;15.32;82.15;101000.00;130427;1254;128969;-66
2023/10/02 05:18:16;;;;;;;9.00;5.70;;;;;;;15.33;82.16;100999.20;130304;1258;115222;-67
2023/10/02 05:21:31;;;;;;;10.90;5.70;;;;;;;15.35;82.25;101003.60;130303;1256;114720;-66
2023/10/02 05:24:34;;;;;;;13.30;5.70;;;;;;;15.37;82.54;101001.33;130454;1257;114907;-66
2023/10/02 05:27:38;;;;;;;11.70;5.60;;;;;;;15.39;82.45;100999.74;130343;1270;115227;-67
2023/10/02 05:30:43;;;;;;;13.20;6.90;;;;;;;15.42;82.51;100997.98;130502;1256;114788;-66
2023/10/02 05:33:48;;;;;;;16.30;6.20;;;;;;;15.45;82.51;100998.69;127949;1252;3156682;-67
2023/10/02 05:37:39;;;;;;;14.20;6.60;;;;;;;15.48;82.73;100999.58;130320;1257;114725;-66
2023/10/02 05:43:21;;;;;;;11.80;6.60;;;;;;;15.56;82.72;101004.52;130041;1254;115334;-66
2023/10/02 05:46:52;;;;;;;15.40;7.30;;;;;;;15.60;82.98;101006.08;130276;1257;114990;-67
2023/10/02 05:49:49;;;;;;;13.20;6.60;;;;;;;15.66;82.91;101008.08;130330;1275;129553;-67
2023/10/02 05:52:53;;;;;;;16.30;7.20;;;;;;;15.72;83.08;101010.42;130398;1254;115177;-68
2023/10/02 05:59:08;;;;;;;14.90;7.30;;;;;;;15.81;83.17;101012.79;130416;1254;114741;-66
2023/10/02 06:02:15;;;;;;;14.10;7.00;;;;;;;15.85;82.97;101015.64;130308;1254;114767;-67
2023/10/02 06:05:18;;;;;;;17.40;6.80;;;;;;;15.88;82.79;101017.81;130128;1260;128629;-67
2023/10/02 06:08:23;;;;;;;14.10;7.20;;;;;;;15.91;82.95;101022.47;130307;1256;114824;-67
2023/10/02 06:11:25;;;;;;;13.20;8.10;;;;;;;15.95;82.84;101020.64;130225;1254;114800;-67
2023/10/02 06:14:28;;;;;;;16.80;7.40;;;;;;;16.00;82.95;101024.84;130308;1254;114791;-67
2023/10/02 06:17:32;;;;;;;13.20;6.30;;;;;;;16.05;82.92;101018.41;130520;1256;114732;-66
2023/10/02 06:20:34;;;;;;;12.30;6.60;;;;;;;16.12;82.86;101026.11;130286;1275;114747;-67
2023/10/02 06:23:39;;;;;;;15.00;7.50;;;;;;;16.19;82.76;101026.39;130304;1257;114752;-67
2023/10/02 06:26:57;;;;;;;14.90;7.00;;;;;;;16.25;82.84;101026.88;130214;1270;115250;-68
2023/10/02 06:30:04;;;;;;;13.20;5.80;;;;;;;16.35;82.71;101028.83;130384;1257;114700;-68
2023/10/02 06:33:08;;;;;;;16.70;7.00;;;;;;;16.45;82.68;101028.19;130424;1254;114726;-70
2023/10/02 06:36:10;;;;;;;15.20;6.30;;;;;;;16.54;82.73;101025.84;130326;1256;115325;-67
2023/10/02 06:39:21;;;;;;;16.30;5.80;;;;;;;16.63;82.53;101027.08;130419;1269;114868;-67
2023/10/02 06:42:23;;;;;;;15.30;6.50;;;;;;;16.75;82.58;101023.46;130093;1254;115214;-67
2023/10/02 06:45:26;;;;;;;15.30;6.20;;;;;;;16.88;82.48;101026.38;130244;1253;115150;-68
2023/10/02 06:48:29;;;;;;;12.20;5.80;;;;;;;17.04;82.44;101026.30;130412;1254;114815;-67
2023/10/02 06:51:30;;;;;;;13.90;6.30;;;;;;;17.22;82.30;101020.48;130508;1256;114719;-68
2023/10/02 06:54:35;;;;;;;11.50;5.80;;;;;;;17.41;82.20;101020.63;130215;1258;114731;-67
2023/10/02 06:57:52;;;;;;;18.90;6.10;;;;;;;17.59;81.93;101016.90;130184;1254;128891;-67
2023/10/02 07:00:54;;;;;;;11.70;6.20;;;;;;;17.76;81.81;101021.17;130046;1261;114864;-67
2023/10/02 07:04:08;;;;;;;13.90;7.00;;;;;;;17.89;81.56;101019.00;130250;1254;115302;-67
2023/10/02 07:07:12;;;;;;;13.60;7.40;;;;;;;17.98;81.25;101019.88;130170;1254;114932;-67
2023/10/02 07:10:14;;;;;;;16.40;7.10;;;;;;;18.03;81.25;101020.26;130015;1259;115063;-68
2023/10/02 07:13:20;;;;;;;13.10;5.90;;;;;;;18.14;81.04;101016.09;130177;1254;115486;-68
2023/10/02 07:16:22;;;;;;;15.60;6.50;;;;;;;18.31;80.85;101022.13;130048;1254;115435;-69
2023/10/02 07:19:38;;;;;;;12.90;6.20;;;;;;;18.49;80.51;101022.46;130367;1258;114781;-67
2023/10/02 07:22:40;;;;;;;18.30;6.20;;;;;;;18.68;80.22;101022.36;130392;1256;114749;-65
2023/10/02 07:25:50;;;;;;;11.70;5.90;;;;;;;18.83;79.85;101018.44;130172;1256;114795;-66
2023/10/02 07:28:53;;;;;;;11.30;5.80;;;;;;;18.97;79.41;101012.52;130447;1272;129073;-64
2023/10/02 07:31:57;;;;;;;9.90;5.40;;;;;;;19.14;79.35;101012.23;130330;1257;114819;-66
2023/10/02 07:35:19;;;;;;;14.40;5.50;;;;;;;19.30;78.95;101013.73;130057;1262;114999;-64
2023/10/02 07:38:30;;;;;;;12.40;5.20;;;;;;;19.51;79.04;101017.80;130424;1257;114740;-65
2023/10/02 07:41:35;;;;;;;10.50;4.30;;;;;;;19.74;78.62;101019.13;130256;1259;115080;-73
2023/10/02 07:44:41;;;;;;;10.70;4.40;;;;;;;19.92;77.99;101023.55;130125;1259;127717;-63
2023/10/02 07:51:11;;;;;;;14.40;5.00;;;;;;;20.20;77.06;101020.48;130106;1259;114920;-62
2023/10/02 07:54:15;;;;;;;12.10;4.60;;;;;;;20.37;76.99;101024.44;129796;1257;114856;-74
2023/10/02 07:57:19;;;;;;;15.70;5.50;;;;;;;20.56;76.65;101025.81;130377;1270;115761;-64
2023/10/02 08:00:38;;;;;;;9.00;4.70;;;;;;;20.71;76.39;101026.95;130559;1262;128813;-66
2023/10/02 08:03:44;;;;;;;12.20;5.00;;;;;;;20.86;75.92;101026.71;130338;1259;115420;-77
2023/10/02 08:06:48;;;;;;;12.30;4.50;;;;;;;21.02;75.55;101029.77;130497;1256;114782;-74
2023/10/02 08:09:52;;;;;;;16.40;5.10;;;;;;;21.20;75.18;101026.44;130513;1253;116293;-74
2023/10/02 08:12:55;;;;;;;;;;;;;;;21.39;74.93;101029.59;130789;1253;114719;-72
2023/10/02 08:15:58;;;;;;;19.10;5.20;;;;;;;21.53;74.49;101029.16;130487;1254;114732;-70
2023/10/02 08:19:10;;;;;;;9.30;4.60;;;;;;;21.67;74.06;101025.31;130479;1253;114818;-66
2023/10/02 08:22:12;;;;;;;12.20;5.30;;;;;;;21.80;73.76;101022.73;130454;1262;115808;-66
2023/10/02 08:25:14;;;;;;;14.00;5.30;;;;;;;21.96;73.27;101023.77;130493;1256;114786;-65
2023/10/02 08:28:23;;;;;;;10.50;4.20;;;;;;;22.12;72.72;101018.60;130494;1256;114748;-63
2023/10/02 08:31:27;;;;;;;7.40;4.40;;;;;;;22.30;72.02;101015.55;130674;1261;114721;-74
2023/10/02 08:34:29;;;;;;;8.70;3.70;;;;;;;22.48;71.40;101014.40;130470;1254;128493;-71
2023/10/02 08:37:31;;;;;;;9.70;4.70;;;;;;;22.67;70.72;101013.99;130568;1255;114833;-75
2023/10/02 08:40:37;;;;;;;10.90;4.30;;;;;;;22.82;70.10;101011.84;130898;1259;114731;-71
2023/10/02 08:43:42;;;;;;;10.60;4.10;;;;;;;22.97;69.40;101010.90;130566;1258;114738;-64
2023/10/02 08:46:44;;;;;;;6.90;4.10;;;;;;;23.11;68.93;101010.39;130510;1256;114790;-65
2023/10/02 08:49:47;;;;;;;8.70;4.30;;;;;;;23.22;68.03;101005.54;130546;1253;115201;-67
2023/10/02 08:52:52;;;;;;;10.70;4.50;;;;;;;23.29;66.85;101004.73;130621;1254;114713;-74
2023/10/02 08:56:00;;;;;;;8.70;4.80;;;;;;;23.32;66.14;101003.20;130595;1257;116329;-72
2023/10/02 08:59:19;;;;;;;7.60;4.10;;;;;;;23.39;65.18;101002.21;130526;1257;114716;-72
2023/10/02 09:02:23;;;;;;;8.70;3.80;;;;;;;23.35;64.71;101001.10;130548;1253;114705;-71
2023/10/02 09:05:36;;;;;;;8.30;4.40;;;;;;;23.42;64.71;101001.05;130241;1254;114940;-66
2023/10/02 09:09:13;;;;;;;10.50;4.90;;;;;;;23.53;64.69;100994.48;130355;1254;127840;-76
2023/10/02 09:12:03;;;;;;;9.00;4.30;;;;;;;23.62;63.19;100996.27;130262;1275;115240;-69
2023/10/02 09:15:24;;;;;;;8.50;4.70;;;;;;;23.64;63.17;100990.58;130713;1257;115143;-64
2023/10/02 09:19:07;;;;;;;7.20;4.10;;;;;;;23.68;62.68;100988.70;130297;1254;115036;-64
2023/10/02 09:22:06;;;;;;;6.20;3.80;;;;;;;23.82;62.24;100984.70;130280;1253;114850;-63
2023/10/02 09:25:35;;;;;;;8.10;4.10;;;;;;;23.86;61.97;100984.30;130362;1254;127969;-64
2023/10/02 09:28:41;;;;;;;7.00;4.10;;;;;;;24.02;62.00;100981.21;130274;1258;115218;-66
2023/10/02 09:31:44;;;;;;;6.80;3.70;;;;;;;24.16;61.65;100977.89;129980;1275;114715;-66
2023/10/02 09:35:08;;;;;;;7.60;3.90;;;;;;;24.30;61.57;100978.67;130417;1260;114786;-64
2023/10/02 09:38:15;;;;;;;10.00;3.60;;;;;;;24.41;60.91;100973.02;130321;1254;114897;-70
2023/10/02 09:41:20;;;;;;;7.60;4.20;;;;;;;24.52;60.75;100968.50;130104;1276;128055;-68
2023/10/02 09:44:27;;;;;;;8.50;4.30;;;;;;;24.61;60.46;100967.10;130204;1254;114801;-70
2023/10/02 09:47:32;;;;;;;9.10;4.40;;;;;;;24.68;59.86;100969.17;130265;1262;114797;-72
2023/10/02 09:50:41;;;;;;;8.90;3.90;;;;;;;24.72;59.41;100966.80;130283;1260;115193;-66
2023/10/02 09:54:04;;;;;;;9.60;4.40;;;;;;;24.79;59.36;100957.69;130608;1275;114766;-72
2023/10/02 09:57:17;;;;;;;7.60;4.60;;;;;;;24.86;58.50;100949.69;130288;1264;119468;-69
2023/10/02 10:00:34;;;;;;;7.90;4.10;;;;;;;24.87;57.95;100949.34;130621;1256;115400;-64
2023/10/02 10:03:48;;;;;;;6.80;4.00;;;;;;;24.88;57.48;100945.23;130310;1259;114825;-66
2023/10/02 10:07:07;;;;;;;13.70;4.10;;;;;;;24.88;57.14;100951.54;130249;1258;114731;-66
2023/10/02 10:10:29;;;;;;;5.80;3.80;;;;;;;24.85;56.77;100948.34;130208;1261;114882;-65
2023/10/02 10:13:32;;;;;;;7.90;4.00;;;;;;;24.84;56.92;100944.16;130458;1257;120409;-65
2023/10/02 10:16:34;;;;;;;8.90;4.50;;;;;;;24.84;56.62;100938.56;130535;1260;114795;-64
2023/10/02 10:19:38;;;;;;;8.70;3.90;;;;;;;24.82;56.42;100939.46;130479;1260;115247;-65
2023/10/02 10:22:40;;;;;;;7.30;4.00;;;;;;;24.78;55.92;100938.61;130578;1254;114829;-63
2023/10/02 10:25:44;;;;;;;6.50;3.70;;;;;;;24.74;56.12;100938.45;130593;1275;114750;-64
2023/10/02 10:28:53;;;;;;;8.00;4.20;;;;;;;24.69;55.60;100937.59;130581;1275;114896;-64
2023/10/02 10:31:55;;;;;;;7.60;4.30;;;;;;;24.64;55.65;100932.30;130891;1254;115060;-67
2023/10/02 10:35:14;;;;;;;8.60;4.90;;;;;;;24.61;55.61;100934.63;130938;1253;114803;-68
2023/10/02 10:38:26;;;;;;;7.00;4.30;;;;;;;24.56;55.29;100928.42;130397;1259;114904;-69
2023/10/02 10:41:31;;;;;;;6.30;4.10;;;;;;;24.49;54.73;100924.06;130670;1254;114810;-66
2023/10/02 10:44:33;;;;;;;8.60;4.10;;;;;;;24.37;54.28;100919.42;130588;1254;128872;-65
2023/10/02 10:47:39;;;;;;;5.50;3.60;;;;;;;24.23;54.28;100913.42;130449;1257;114811;-66
2023/10/02 10:50:41;;;;;;;7.60;4.00;;;;;;;24.17;54.72;100908.05;130466;1259;115336;-71
2023/10/02 10:53:44;;;;;;;10.70;4.40;;;;;;;24.11;54.68;100909.55;130477;1253;114788;-64
2023/10/02 10:56:57;;;;;;;7.40;4.20;;;;;;;24.04;54.63;100908.60;130528;1272;115040;-64
2023/10/02 11:00:27;;;;;;;11.50;4.40;;;;;;;23.97;54.58;100907.03;130343;1275;127543;-66
2023/10/02 11:03:30;;;;;;;7.90;3.90;;;;;;;23.90;54.56;100905.48;130293;1257;116507;-72
2023/10/02 11:06:40;;;;;;;9.10;4.00;;;;;;;23.88;54.38;100899.46;130610;1257;114698;-66
2023/10/02 11:09:42;;;;;;;8.40;3.80;;;;;;;23.85;54.53;100899.44;132182;1257;114881;-66
2023/10/02 11:12:58;;;;;;;5.20;3.40;;;;;;;23.81;54.43;100897.55;130729;1256;114740;-70
2023/10/02 11:16:09;;;;;;;6.60;3.80;;;;;;;23.82;54.65;100899.66;130700;1256;129051;-69
2023/10/02 11:19:21;;;;;;;6.50;3.60;;;;;;;23.82;54.64;100892.88;130610;1256;115258;-69
2023/10/02 11:22:24;;;;;;;7.50;3.70;;;;;;;23.83;54.67;100888.07;130622;1259;114811;-69
2023/10/02 11:25:26;;;;;;;8.20;3.80;;;;;;;23.85;54.52;100884.30;130475;1257;114755;-70
2023/10/02 11:28:30;;;;;;;6.10;4.30;;;;;;;23.87;54.62;100880.05;130556;1267;115231;-68
2023/10/02 11:31:33;;;;;;;5.80;3.50;;;;;;;23.88;54.28;100876.52;130439;1275;114896;-68
2023/10/02 11:34:41;;;;;;;5.00;3.10;;;;;;;23.89;54.13;100875.35;130540;1254;114738;-69
2023/10/02 11:37:48;;;;;;;8.50;4.50;;;;;;;23.86;54.02;100872.49;130309;1257;114728;-68
2023/10/02 11:40:50;;;;;;;8.10;3.30;;;;;;;23.85;53.78;100865.66;130503;1257;115392;-69
2023/10/02 11:43:54;;;;;;;6.60;3.80;;;;;;;23.82;53.64;100863.92;130301;1256;114737;-68
2023/10/02 11:46:56;;;;;;;;;;;;;;;23.82;53.76;100861.52;130326;1257;127694;-69
2023/10/02 11:49:59;;;;;;;8.30;3.30;;;;;;;23.83;53.98;100866.89;130382;1259;115436;-68
2023/10/02 11:53:01;;;;;;;4.90;3.00;;;;;;;23.84;53.83;100864.64;130427;1256;115185;-68
2023/10/02 11:56:03;;;;;;;7.00;3.10;;;;;;;23.86;53.96;100862.84;130476;1275;114718;-68
2023/10/02 11:59:06;;;;;;;5.30;3.00;;;;;;;23.89;54.03;100865.48;130231;1259;114811;-69
2023/10/02 12:02:13;;;;;;;7.80;3.30;;;;;;;23.92;53.65;100864.40;130446;1257;114727;-69
2023/10/02 12:05:16;;;;;;;6.70;4.10;;;;;;;23.94;53.40;100861.09;130343;1256;128551;-69
2023/10/02 12:08:21;;;;;;;6.60;3.70;;;;;;;23.92;53.32;100857.64;130278;1257;115225;-68
2023/10/02 12:11:28;;;;;;;4.60;3.00;;;;;;;23.90;53.44;100850.95;130354;1260;114760;-69
2023/10/02 12:14:31;;;;;;;10.80;3.70;;;;;;;23.88;53.26;100845.51;130175;1257;114833;-69
2023/10/02 12:17:33;;;;;;;6.40;3.00;;;;;;;23.85;53.28;100839.01;130450;1273;114767;-70
2023/10/02 12:20:39;;;;;;;10.20;5.80;;;;;;;23.83;53.18;100841.55;130267;1256;114734;-69
2023/10/02 12:23:43;;;;;;;6.50;4.10;;;;;;;23.85;53.58;100837.89;130160;1258;115308;-68
2023/10/02 12:26:46;;;;;;;9.30;3.60;;;;;;;23.91;53.64;100833.48;130269;1257;114847;-70
2023/10/02 12:29:50;;;;;;;4.30;2.90;;;;;;;23.98;53.49;100832.50;130289;1257;114725;-69
2023/10/02 12:32:53;;;;;;;5.00;3.50;;;;;;;24.05;53.29;100833.82;130171;1275;114871;-69
2023/10/02 12:35:55;;;;;;;5.10;3.50;;;;;;;24.12;53.13;100829.52;130399;1254;114668;-69
2023/10/02 12:39:00;;;;;;;5.80;3.30;;;;;;;24.19;53.19;100825.55;130335;1272;114769;-69
2023/10/02 12:42:03;;;;;;;5.80;3.00;;;;;;;24.26;53.01;100821.12;130350;1257;114791;-69
2023/10/02 12:45:06;;;;;;;5.60;3.10;;;;;;;24.30;52.72;100822.02;130388;1254;114814;-69
2023/10/02 12:48:09;;;;;;;6.60;3.20;;;;;;;24.35;52.75;100819.92;130402;1275;114717;-69
2023/10/02 12:51:11;;;;;;;7.70;4.60;;;;;;;24.39;52.63;100817.33;130443;1254;114779;-68
2023/10/02 12:54:13;;;;;;;4.90;3.70;;;;;;;24.45;52.87;100816.17;130384;1254;114721;-70
2023/10/02 12:57:15;;;;;;;4.90;3.00;;;;;;;24.52;52.38;100811.13;130290;1254;116478;-70
2023/10/02 13:00:17;;;;;;;5.50;3.50;;;;;;;24.58;51.95;100804.27;130334;1275;114743;-70
2023/10/02 13:03:20;;;;;;;5.30;3.40;;;;;;;24.67;52.00;100799.92;130353;1256;115361;-69
2023/10/02 13:06:26;;;;;;;6.70;3.70;;;;;;;24.74;51.71;100796.86;130557;1267;115152;-70
2023/10/02 13:09:29;;;;;;;4.40;3.20;;;;;;;24.81;51.73;100797.29;130060;1268;114818;-71
2023/10/02 13:12:34;;;;;;;6.20;3.40;;;;;;;24.90;51.95;100796.58;130373;1257;114740;-69
2023/10/02 13:15:36;;;;;;;5.40;3.20;;;;;;;24.99;51.59;100794.48;130418;1254;115068;-69
2023/10/02 13:18:39;;;;;;;8.00;4.80;;;;;;;25.07;51.40;100789.09;130520;1267;114717;-70
2023/10/02 13:21:41;;;;;;;3.80;2.90;;;;;;;25.16;51.41;100782.15;130274;1275;114699;-70
2023/10/02 13:24:43;;;;;;;6.00;3.80;;;;;;;25.22;51.25;100778.95;130397;1276;115398;-69
2023/10/02 13:27:47;;;;;;;6.10;3.70;;;;;;;25.29;51.08;100773.36;130324;1257;114719;-70
2023/10/02 13:30:52;;;;;;;5.50;2.80;;;;;;;25.28;50.64;100771.92;130256;1264;120234;-69
2023/10/02 13:33:58;;;;;;;5.10;3.30;;;;;;;25.28;50.30;100769.36;130045;1276;116318;-70
2023/10/02 13:37:00;;;;;;;7.80;3.50;;;;;;;25.27;50.25;100765.48;130365;1260;114742;-69
2023/10/02 13:40:05;;;;;;;7.10;3.30;;;;;;;25.25;50.16;100761.66;130354;1267;114769;-68
2023/10/02 13:43:07;;;;;;;10.20;4.20;;;;;;;25.25;50.20;100757.23;130076;1260;114799;-70
2023/10/02 13:46:10;;;;;;;7.60;3.50;;;;;;;25.26;50.48;100760.66;130233;1267;114702;-70
2023/10/02 13:49:14;;;;;;;7.20;4.50;;;;;;;25.25;50.38;100757.27;130308;1259;114741;-70
2023/10/02 13:52:16;;;;;;;10.60;5.40;;;;;;;25.27;50.24;100754.20;130281;1267;114725;-70
2023/10/02 13:55:26;;;;;;;6.90;3.60;;;;;;;25.30;50.51;100749.64;130278;1273;114728;-71
2023/10/02 13:58:30;;;;;;;7.40;5.00;;;;;;;25.34;50.80;100751.27;129990;1260;115054;-71
2023/10/02 14:01:32;;;;;;;8.60;4.60;;;;;;;25.40;50.86;100754.11;130305;1276;114781;-73
2023/10/02 14:04:34;;;;;;;14.10;6.70;;;;;;;25.44;50.78;100752.00;130378;1260;115128;-71
2023/10/02 14:07:36;;;;;;;9.90;5.00;;;;;;;25.49;50.63;100748.77;130375;1276;114801;-70
2023/10/02 14:10:39;;;;;;;10.50;3.80;;;;;;;25.52;50.60;100746.64;130452;1276;114707;-71
2023/10/02 14:13:42;;;;;;;7.70;3.20;;;;;;;25.52;50.30;100745.38;130310;1257;114791;-71
2023/10/02 14:16:44;;;;;;;6.30;3.70;;;;;;;25.50;49.43;100747.02;130177;1256;114802;-71
2023/10/02 14:19:46;;;;;;;6.20;3.50;;;;;;;25.48;49.46;100744.83;130315;1276;114735;-70
2023/10/02 14:22:48;;;;;;;9.10;3.60;;;;;;;25.46;49.49;100743.06;130416;1267;114718;-70
2023/10/02 14:25:50;;;;;;;4.90;3.60;;;;;;;25.41;48.81;100738.45;130329;1257;115269;-71
2023/10/02 14:28:53;;;;;;;6.20;3.50;;;;;;;25.38;49.00;100734.75;130355;1266;115146;-69